^^
Your Local Weather - Clay, NY Station Historical Data
Daily Summary for July 11, 2017 Units:  English    Metric   Both
« Previous Day
Next Day »
Daily Weekly Monthly Yearly Custom
  High: Low: Average:
Temperature: 82.6 °F 64.7 °F 72.6 °F
Dew Point: 69.4 °F 62.4 °F 64.7 °F
Humidity: 94% 51% 78%
Wind Speed: 4.0mph 0.0mph 0.7mph
Wind Gust: 7.0mph - -
Wind- - SW
Pressure: 29.89 in 29.83 in -
Precipitation: 0.33 in    
Historical Graphs
 
 
Tabular Data for July 11, 2017
Time Temperature Dew Point Pressure Wind Wind Speed Wind Gust Humidity Rainfall Rate (Hourly) solar
00:04 66.5 °F 63.8 °F 29.88 in SW 1.0 mph 2.0 mph 91% 0.00 in 0 W/m2
00:10 66.7 °F 64.0 °F 29.88 in West 2.0 mph 2.0 mph 91% 0.00 in 0 W/m2
00:16 66.9 °F 63.6 °F 29.88 in WSW 1.0 mph 2.0 mph 89% 0.00 in 0 W/m2
00:22 66.9 °F 63.6 °F 29.88 in WSW 1.0 mph 5.0 mph 89% 0.00 in 0 W/m2
00:28 66.9 °F 63.2 °F 29.89 in WSW 2.0 mph 5.0 mph 88% 0.00 in 0 W/m2
00:34 66.8 °F 63.1 °F 29.88 in WSW 2.0 mph 3.0 mph 88% 0.00 in 0 W/m2
00:40 66.7 °F 63.4 °F 29.88 in WSW 2.0 mph 2.0 mph 89% 0.46 in 0 W/m2
00:46 66.4 °F 63.1 °F 29.88 in WSW 1.0 mph 2.0 mph 89% 0.21 in 0 W/m2
00:52 66.3 °F 63.3 °F 29.88 in WSW 1.0 mph 2.0 mph 90% 0.57 in 0 W/m2
00:58 66.1 °F 63.1 °F 29.88 in WSW 1.0 mph 2.0 mph 90% 0.19 in 0 W/m2
01:04 66.0 °F 63.3 °F 29.88 in Calm   1.0 mph 91% 0.42 in 0 W/m2
01:10 65.8 °F 63.1 °F 29.88 in SW 1.0 mph 1.0 mph 91% 0.28 in 0 W/m2
01:16 65.7 °F 63.0 °F 29.88 in SW 1.0 mph 2.0 mph 91% 0.12 in 0 W/m2
01:22 65.5 °F 62.8 °F 29.88 in SSE 2.0 mph 2.0 mph 91% 0.10 in 0 W/m2
01:28 65.4 °F 63.0 °F 29.87 in SSE 1.0 mph 2.0 mph 92% 0.56 in 0 W/m2
01:36 65.3 °F 62.9 °F 29.87 in SSE 1.0 mph 1.0 mph 92% 0.19 in 0 W/m2
01:42 65.2 °F 62.8 °F 29.86 in SSE 1.0 mph 1.0 mph 92% 0.12 in 0 W/m2
01:48 65.2 °F 62.8 °F 29.86 in SSE 1.0 mph 4.0 mph 92% 0.06 in 0 W/m2
01:54 65.1 °F 62.7 °F 29.86 in SSE 1.0 mph 4.0 mph 92% 0.05 in 0 W/m2
02:00 65.1 °F 62.7 °F 29.86 in Calm     92% 0.05 in 0 W/m2
02:06 65.1 °F 62.7 °F 29.85 in ESE 1.0 mph 2.0 mph 92% 0.04 in 0 W/m2
02:12 65.1 °F 62.7 °F 29.85 in ESE 1.0 mph 1.0 mph 92% 0.00 in 0 W/m2
02:18 65.0 °F 62.9 °F 29.85 in ESE 1.0 mph 2.0 mph 93% 0.00 in 0 W/m2
02:24 65.0 °F 62.9 °F 29.85 in ESE 1.0 mph 1.0 mph 93% 0.00 in 0 W/m2
02:30 65.0 °F 62.9 °F 29.85 in Calm     93% 0.00 in 0 W/m2
02:36 65.0 °F 62.9 °F 29.85 in Calm     93% 0.00 in 0 W/m2
02:42 65.0 °F 62.9 °F 29.85 in Calm     93% 0.00 in 0 W/m2
02:48 65.0 °F 62.9 °F 29.85 in Calm     93% 0.00 in 0 W/m2
02:54 64.9 °F 62.8 °F 29.85 in Calm     93% 0.00 in 0 W/m2
03:00 65.0 °F 62.9 °F 29.85 in Calm   1.0 mph 93% 0.00 in 0 W/m2
03:06 64.9 °F 62.8 °F 29.85 in Calm   1.0 mph 93% 0.00 in 0 W/m2
03:12 65.0 °F 62.9 °F 29.85 in Calm   2.0 mph 93% 0.00 in 0 W/m2
03:18 65.0 °F 62.9 °F 29.85 in East 1.0 mph 3.0 mph 93% 0.00 in 0 W/m2
03:24 64.9 °F 62.8 °F 29.85 in East 1.0 mph 1.0 mph 93% 0.00 in 0 W/m2
03:30 64.9 °F 62.8 °F 29.84 in Calm     93% 0.00 in 0 W/m2
03:36 64.8 °F 62.7 °F 29.84 in Calm     93% 0.00 in 0 W/m2
03:42 64.7 °F 62.6 °F 29.84 in Calm     93% 0.00 in 0 W/m2
03:48 64.7 °F 62.6 °F 29.84 in Calm     93% 0.00 in 0 W/m2
03:54 64.7 °F 62.6 °F 29.84 in Calm     93% 0.00 in 0 W/m2
04:00 64.7 °F 62.6 °F 29.84 in Calm     93% 0.00 in 0 W/m2
04:06 64.7 °F 62.6 °F 29.83 in Calm     93% 0.00 in 0 W/m2
04:12 64.7 °F 62.6 °F 29.84 in Calm     93% 0.00 in 0 W/m2
04:18 64.8 °F 62.7 °F 29.83 in Calm     93% 0.00 in 0 W/m2
04:24 64.8 °F 62.7 °F 29.83 in Calm   1.0 mph 93% 0.00 in 0 W/m2
04:30 64.7 °F 62.6 °F 29.84 in Calm     93% 0.00 in 0 W/m2
04:36 64.7 °F 62.6 °F 29.84 in Calm   1.0 mph 93% 0.00 in 0 W/m2
04:42 64.8 °F 63.0 °F 29.84 in Calm     94% 0.00 in 0 W/m2
04:48 64.8 °F 63.0 °F 29.84 in Calm     94% 0.00 in 0 W/m2
04:54 64.9 °F 63.1 °F 29.85 in Calm     94% 0.00 in 0 W/m2
05:00 64.9 °F 63.1 °F 29.85 in Calm     94% 0.00 in 0 W/m2
05:06 64.9 °F 63.1 °F 29.85 in Calm     94% 0.00 in 0 W/m2
05:12 64.9 °F 63.1 °F 29.85 in Calm     94% 0.00 in 0 W/m2
05:18 64.8 °F 63.0 °F 29.85 in Calm     94% 0.00 in 0 W/m2
05:24 64.8 °F 63.0 °F 29.85 in Calm     94% 0.00 in 0 W/m2
05:30 64.9 °F 63.1 °F 29.85 in Calm     94% 0.00 in 0 W/m2
05:36 64.9 °F 63.1 °F 29.85 in Calm     94% 0.00 in 0 W/m2
05:42 64.9 °F 63.1 °F 29.85 in Calm     94% 0.00 in 0 W/m2
05:48 64.8 °F 63.0 °F 29.85 in Calm     94% 0.00 in 0 W/m2
05:54 64.8 °F 63.0 °F 29.85 in Calm     94% 0.00 in 5 W/m2
06:00 64.9 °F 63.1 °F 29.85 in Calm     94% 0.00 in 7 W/m2
06:06 64.9 °F 63.1 °F 29.85 in Calm     94% 0.00 in 11 W/m2
06:12 65.0 °F 63.2 °F 29.85 in Calm     94% 0.00 in 19 W/m2
06:18 65.1 °F 63.3 °F 29.85 in Calm     94% 0.00 in 26 W/m2
06:24 65.2 °F 63.4 °F 29.86 in Calm     94% 0.00 in 33 W/m2
06:30 65.3 °F 63.5 °F 29.86 in Calm     94% 0.00 in 25 W/m2
06:36 65.5 °F 63.7 °F 29.86 in Calm     94% 0.00 in 35 W/m2
06:42 65.6 °F 63.8 °F 29.86 in Calm     94% 0.00 in 26 W/m2
06:48 65.6 °F 63.8 °F 29.86 in Calm     94% 0.00 in 40 W/m2
06:54 65.6 °F 63.8 °F 29.86 in Calm     94% 0.00 in 46 W/m2
07:00 65.6 °F 63.8 °F 29.86 in Calm     94% 0.00 in 39 W/m2
07:06 65.6 °F 63.8 °F 29.86 in Calm   1.0 mph 94% 0.00 in 49 W/m2
07:12 65.7 °F 63.9 °F 29.86 in Calm   1.0 mph 94% 0.00 in 54 W/m2
07:18 65.9 °F 64.1 °F 29.86 in Calm   1.0 mph 94% 0.00 in 47 W/m2
07:24 65.9 °F 64.1 °F 29.87 in Calm   1.0 mph 94% 0.00 in 70 W/m2
07:30 66.0 °F 64.2 °F 29.87 in SSE 1.0 mph 1.0 mph 94% 0.00 in 90 W/m2
07:36 66.2 °F 64.4 °F 29.87 in SW 1.0 mph 1.0 mph 94% 0.00 in 93 W/m2
07:42 66.5 °F 64.7 °F 29.87 in SW 1.0 mph 3.0 mph 94% 0.00 in 137 W/m2
07:48 66.9 °F 65.1 °F 29.86 in SW 1.0 mph 3.0 mph 94% 0.00 in 130 W/m2
07:54 67.0 °F 65.2 °F 29.87 in SW 1.0 mph 3.0 mph 94% 0.00 in 118 W/m2
08:00 67.3 °F 65.2 °F 29.87 in WSW 1.0 mph 1.0 mph 93% 0.00 in 107 W/m2
08:06 67.6 °F 65.5 °F 29.87 in WSW 1.0 mph 2.0 mph 93% 0.00 in 190 W/m2
08:12 68.2 °F 66.1 °F 29.88 in WSW 1.0 mph 3.0 mph 93% 0.00 in 192 W/m2
08:18 68.5 °F 66.1 °F 29.88 in WSW 1.0 mph 3.0 mph 92% 0.00 in 162 W/m2
08:24 68.8 °F 66.4 °F 29.88 in SW 1.0 mph 3.0 mph 92% 0.00 in 178 W/m2
08:30 68.9 °F 66.2 °F 29.88 in West 2.0 mph 2.0 mph 91% 0.00 in 176 W/m2
08:36 69.2 °F 66.1 °F 29.88 in West 1.0 mph 2.0 mph 90% 0.00 in 251 W/m2
08:42 69.6 °F 66.2 °F 29.88 in WSW 1.0 mph 1.0 mph 89% 0.00 in 156 W/m2
08:48 70.1 °F 66.4 °F 29.88 in WSW 1.0 mph 1.0 mph 88% 0.00 in 480 W/m2
08:54 70.8 °F 67.1 °F 29.88 in WSW 1.0 mph 3.0 mph 88% 0.00 in 513 W/m2
09:00 71.2 °F 66.8 °F 29.88 in West 1.0 mph 1.0 mph 86% 0.00 in 227 W/m2
09:06 71.7 °F 66.9 °F 29.87 in SSW 2.0 mph 3.0 mph 85% 0.00 in 308 W/m2
09:12 71.5 °F 66.1 °F 29.87 in NW 2.0 mph 2.0 mph 83% 0.00 in 116 W/m2
09:18 71.2 °F 66.1 °F 29.86 in WSW 1.0 mph 2.0 mph 84% 0.00 in 584 W/m2
09:24 71.7 °F 66.6 °F 29.86 in SW 1.0 mph 1.0 mph 84% 0.00 in 608 W/m2
09:30 72.2 °F 66.0 °F 29.86 in WSW 1.0 mph 1.0 mph 81% 0.00 in 710 W/m2
09:36 72.6 °F 66.4 °F 29.86 in SW 1.0 mph 2.0 mph 81% 0.00 in 251 W/m2
09:42 72.6 °F 66.4 °F 29.86 in WSW 1.0 mph 4.0 mph 81% 0.00 in 731 W/m2
09:48 73.0 °F 66.5 °F 29.86 in SW 1.0 mph 4.0 mph 80% 0.00 in 251 W/m2
09:54 72.7 °F 66.2 °F 29.86 in Calm   4.0 mph 80% 0.00 in 207 W/m2
10:00 72.8 °F 66.6 °F 29.86 in SW 1.0 mph 2.0 mph 81% 0.00 in 861 W/m2
10:06 73.3 °F 65.7 °F 29.86 in WSW 1.0 mph 5.0 mph 77% 0.00 in 218 W/m2
10:12 73.2 °F 66.7 °F 29.86 in SW 1.0 mph 1.0 mph 80% 0.00 in 932 W/m2
10:18 73.2 °F 65.2 °F 29.86 in WSW 1.0 mph 4.0 mph 76% 0.00 in 309 W/m2
10:24 73.5 °F 66.9 °F 29.87 in West 1.0 mph 1.0 mph 80% 0.00 in 387 W/m2
10:30 74.5 °F 66.8 °F 29.87 in Calm     77% 0.00 in 860 W/m2
10:36 74.9 °F 66.8 °F 29.88 in WSW 1.0 mph 1.0 mph 76% 0.00 in 905 W/m2
10:42 75.4 °F 65.7 °F 29.88 in WSW 1.0 mph 3.0 mph 72% 0.00 in 171 W/m2
10:48 74.1 °F 65.3 °F 29.88 in WSW 1.0 mph 3.0 mph 74% 0.00 in 181 W/m2
10:54 74.1 °F 66.4 °F 29.87 in Calm   1.0 mph 77% 0.00 in 997 W/m2
11:00 75.1 °F 64.6 °F 29.87 in NNE 1.0 mph 1.0 mph 70% 0.00 in 1000 W/m2
11:06 75.5 °F 65.4 °F 29.87 in WSW 1.0 mph 4.0 mph 71% 0.00 in 308 W/m2
11:12 74.8 °F 65.6 °F 29.88 in SW 1.0 mph 1.0 mph 73% 0.00 in 309 W/m2
11:18 74.3 °F 64.7 °F 29.87 in NNW 1.0 mph 3.0 mph 72% 0.00 in 283 W/m2
11:24 75.0 °F 66.1 °F 29.87 in NNW 1.0 mph 1.0 mph 74% 0.00 in 837 W/m2
11:30 76.2 °F 66.9 °F 29.86 in SSW 1.0 mph 1.0 mph 73% 0.00 in 993 W/m2
11:36 76.9 °F 65.5 °F 29.86 in WNW 1.0 mph 1.0 mph 68% 0.00 in 984 W/m2
11:42 76.6 °F 66.9 °F 29.86 in WSW 1.0 mph 7.0 mph 72% 0.00 in 953 W/m2
11:48 76.3 °F 65.0 °F 29.86 in WSW 1.0 mph 7.0 mph 68% 0.00 in 308 W/m2
11:54 76.0 °F 65.5 °F 29.87 in South 1.0 mph 1.0 mph 70% 0.00 in 1007 W/m2
12:00 76.2 °F 66.9 °F 29.86 in SSW 1.0 mph 1.0 mph 73% 0.00 in 1055 W/m2
12:06 77.1 °F 65.7 °F 29.86 in WSW 2.0 mph 6.0 mph 68% 0.00 in 246 W/m2
12:12 76.6 °F 65.7 °F 29.86 in SSW 2.0 mph 5.0 mph 69% 0.00 in 1042 W/m2
12:18 78.0 °F 69.4 °F 29.86 in West 2.0 mph 5.0 mph 75% 0.00 in 1051 W/m2
12:24 78.7 °F 66.4 °F 29.86 in WSW 2.0 mph 3.0 mph 66% 0.00 in 1095 W/m2
12:30 78.2 °F 63.6 °F 29.86 in SW 1.0 mph 1.0 mph 61% 0.00 in 431 W/m2
12:36 77.5 °F 66.1 °F 29.86 in WSW 1.0 mph 3.0 mph 68% 0.00 in 485 W/m2
12:42 77.5 °F 65.7 °F 29.86 in WSW 1.0 mph 2.0 mph 67% 0.00 in 1086 W/m2
12:48 78.9 °F 66.1 °F 29.86 in SW 1.0 mph 6.0 mph 65% 0.00 in 1072 W/m2
12:54 78.9 °F 64.3 °F 29.86 in South 2.0 mph 5.0 mph 61% 0.00 in 1125 W/m2
13:00 77.6 °F 63.5 °F 29.86 in SW 2.0 mph 2.0 mph 62% 0.00 in 415 W/m2
13:06 77.3 °F 64.6 °F 29.86 in SW 2.0 mph 3.0 mph 65% 0.00 in 378 W/m2
13:12 78.2 °F 64.1 °F 29.86 in SW 1.0 mph 2.0 mph 62% 0.00 in 462 W/m2
13:18 78.4 °F 64.3 °F 29.86 in SW 1.0 mph 2.0 mph 62% 0.00 in 476 W/m2
13:24 78.8 °F 66.0 °F 29.86 in NNW 1.0 mph 6.0 mph 65% 0.00 in 1099 W/m2
13:30 78.9 °F 66.6 °F 29.86 in NW 1.0 mph 1.0 mph 66% 0.00 in 299 W/m2
13:36 78.4 °F 64.8 °F 29.86 in SW 1.0 mph 4.0 mph 63% 0.00 in 397 W/m2
13:42 78.3 °F 66.0 °F 29.86 in SSW 1.0 mph 1.0 mph 66% 0.00 in 329 W/m2
13:48 79.3 °F 65.1 °F 29.86 in West 1.0 mph 1.0 mph 62% 0.00 in 448 W/m2
13:54 78.7 °F 64.6 °F 29.86 in West 1.0 mph 2.0 mph 62% 0.00 in 410 W/m2
14:00 79.6 °F 65.0 °F 29.86 in West 1.0 mph 1.0 mph 61% 0.00 in 1042 W/m2
14:06 80.0 °F 65.8 °F 29.86 in NNW 1.0 mph 4.0 mph 62% 0.00 in 232 W/m2
14:12 79.2 °F 65.1 °F 29.86 in West 1.0 mph 2.0 mph 62% 0.00 in 411 W/m2
14:18 80.0 °F 65.3 °F 29.86 in SSW 2.0 mph 5.0 mph 61% 0.00 in 1097 W/m2
14:24 80.4 °F 64.3 °F 29.87 in SW 3.0 mph 5.0 mph 58% 0.00 in 294 W/m2
14:30 79.4 °F 64.3 °F 29.86 in WSW 2.0 mph 2.0 mph 60% 0.00 in 336 W/m2
14:36 79.9 °F 65.2 °F 29.86 in SSW 2.0 mph 4.0 mph 61% 0.00 in 1071 W/m2
14:42 79.5 °F 64.9 °F 29.87 in SSW 1.0 mph 3.0 mph 61% 0.00 in 294 W/m2
14:48 79.4 °F 65.2 °F 29.87 in Calm   3.0 mph 62% 0.00 in 323 W/m2
14:54 79.8 °F 65.2 °F 29.87 in NW 1.0 mph 3.0 mph 61% 0.00 in 267 W/m2
15:00 80.0 °F 65.3 °F 29.87 in SW 2.0 mph 2.0 mph 61% 0.00 in 1104 W/m2
15:06 80.6 °F 64.9 °F 29.86 in SW 3.0 mph 5.0 mph 59% 0.00 in 640 W/m2
15:12 80.3 °F 65.1 °F 29.86 in NW 2.0 mph 3.0 mph 60% 0.00 in 424 W/m2
15:18 80.2 °F 65.5 °F 29.86 in South 2.0 mph 3.0 mph 61% 0.00 in 499 W/m2
15:24 81.3 °F 65.6 °F 29.86 in SSW 2.0 mph 2.0 mph 59% 0.00 in 656 W/m2
15:30 81.2 °F 66.9 °F 29.86 in NW 2.0 mph 2.0 mph 62% 0.00 in 925 W/m2
15:36 82.0 °F 66.3 °F 29.86 in NNW 1.0 mph 3.0 mph 59% 0.00 in 824 W/m2
15:42 81.7 °F 65.5 °F 29.86 in NW 1.0 mph 3.0 mph 58% 0.00 in 784 W/m2
15:48 81.6 °F 63.3 °F 29.85 in SW 2.0 mph 4.0 mph 54% 0.00 in 765 W/m2
15:54 81.7 °F 65.0 °F 29.85 in WSW 2.0 mph 3.0 mph 57% 0.00 in 765 W/m2
16:00 81.7 °F 65.0 °F 29.85 in SW 1.0 mph 1.0 mph 57% 0.00 in 752 W/m2
16:06 81.6 °F 64.4 °F 29.85 in SW 2.0 mph 2.0 mph 56% 0.00 in 721 W/m2
16:12 81.9 °F 65.2 °F 29.84 in South 1.0 mph 2.0 mph 57% 0.00 in 693 W/m2
16:18 82.0 °F 65.8 °F 29.85 in SW 2.0 mph 4.0 mph 58% 0.00 in 686 W/m2
16:24 82.2 °F 65.4 °F 29.85 in WSW 2.0 mph 3.0 mph 57% 0.00 in 670 W/m2
16:30 82.5 °F 64.2 °F 29.84 in WSW 1.0 mph 2.0 mph 54% 0.00 in 596 W/m2
16:36 82.6 °F 64.3 °F 29.84 in SW 2.0 mph 4.0 mph 54% 0.00 in 134 W/m2
16:42 82.6 °F 63.2 °F 29.84 in WSW 3.0 mph 4.0 mph 52% 0.00 in 633 W/m2
16:48 82.3 °F 62.4 °F 29.84 in SW 4.0 mph 4.0 mph 51% 0.00 in 135 W/m2
16:54 82.3 °F 63.5 °F 29.84 in WSW 3.0 mph 3.0 mph 53% 0.00 in 190 W/m2
17:00 82.3 °F 64.5 °F 29.84 in SW 1.0 mph 1.0 mph 55% 0.00 in 98 W/m2
17:06 82.3 °F 64.0 °F 29.84 in SW 2.0 mph 2.0 mph 54% 0.00 in 62 W/m2
17:12 82.2 °F 64.9 °F 29.84 in South 2.0 mph 6.0 mph 56% 0.00 in 62 W/m2
17:18 82.2 °F 63.9 °F 29.84 in SW 2.0 mph 6.0 mph 54% 0.00 in 62 W/m2
17:24 82.0 °F 63.2 °F 29.84 in SW 1.0 mph 2.0 mph 53% 0.00 in 58 W/m2
17:30 82.0 °F 62.6 °F 29.84 in SW 1.0 mph 1.0 mph 52% 0.00 in 60 W/m2
17:36 81.8 °F 63.0 °F 29.84 in SW 1.0 mph 1.0 mph 53% 0.00 in 60 W/m2
17:42 81.7 °F 63.4 °F 29.83 in Calm   4.0 mph 54% 0.00 in 60 W/m2
17:48 81.9 °F 64.1 °F 29.83 in SW 1.0 mph 4.0 mph 55% 0.00 in 67 W/m2
17:54 81.9 °F 63.6 °F 29.83 in WSW 1.0 mph 3.0 mph 54% 0.00 in 83 W/m2
18:00 81.8 °F 64.1 °F 29.83 in WSW 1.0 mph 1.0 mph 55% 0.00 in 74 W/m2
18:06 81.8 °F 63.5 °F 29.83 in WSW 2.0 mph 4.0 mph 54% 0.00 in 83 W/m2
18:12 81.9 °F 63.1 °F 29.83 in WSW 2.0 mph 2.0 mph 53% 0.00 in 72 W/m2
18:18 81.9 °F 64.1 °F 29.83 in Calm   5.0 mph 55% 0.00 in 58 W/m2
18:24 81.8 °F 63.0 °F 29.83 in WSW 1.0 mph 1.0 mph 53% 0.00 in 53 W/m2
18:30 81.8 °F 63.5 °F 29.83 in Calm   3.0 mph 54% 0.00 in 56 W/m2
18:36 81.6 °F 64.9 °F 29.84 in WSW 1.0 mph 3.0 mph 57% 0.00 in 63 W/m2
18:42 81.5 °F 64.3 °F 29.83 in Calm   1.0 mph 56% 0.00 in 44 W/m2
18:48 81.4 °F 64.2 °F 29.83 in Calm   1.0 mph 56% 0.00 in 42 W/m2
18:54 81.3 °F 64.1 °F 29.83 in WSW 1.0 mph 2.0 mph 56% 0.00 in 40 W/m2
19:00 81.3 °F 64.1 °F 29.83 in WSW 1.0 mph 1.0 mph 56% 0.00 in 39 W/m2
19:06 81.1 °F 64.4 °F 29.84 in Calm   3.0 mph 57% 0.00 in 39 W/m2
19:12 80.8 °F 64.6 °F 29.84 in Calm     58% 0.00 in 39 W/m2
19:18 80.5 °F 64.4 °F 29.84 in Calm     58% 0.00 in 39 W/m2
19:24 80.4 °F 64.8 °F 29.85 in Calm     59% 0.00 in 39 W/m2
19:30 80.2 °F 65.1 °F 29.84 in Calm     60% 0.00 in 33 W/m2
19:36 80.0 °F 65.3 °F 29.84 in Calm     61% 0.00 in 30 W/m2
19:42 79.6 °F 66.8 °F 29.83 in Calm     65% 0.00 in 26 W/m2
19:48 79.0 °F 68.0 °F 29.83 in Calm     69% 0.00 in 26 W/m2
19:54 78.3 °F 67.7 °F 29.83 in Calm     70% 0.00 in 23 W/m2
20:00 77.5 °F 67.8 °F 29.83 in Calm     72% 0.00 in 21 W/m2
20:06 76.6 °F 67.7 °F 29.83 in Calm     74% 0.00 in 18 W/m2
20:12 75.7 °F 67.6 °F 29.83 in Calm     76% 0.00 in 12 W/m2
20:18 75.0 °F 66.9 °F 29.83 in Calm     76% 0.00 in 9 W/m2
20:24 74.6 °F 66.9 °F 29.83 in Calm     77% 0.00 in 7 W/m2
20:30 74.2 °F 66.5 °F 29.83 in Calm     77% 0.00 in 5 W/m2
20:36 73.8 °F 66.9 °F 29.83 in Calm     79% 0.00 in 0 W/m2
20:42 73.2 °F 66.7 °F 29.83 in Calm     80% 0.00 in 0 W/m2
20:48 72.8 °F 67.0 °F 29.83 in Calm     82% 0.00 in 0 W/m2
20:54 72.3 °F 66.5 °F 29.83 in Calm     82% 0.00 in 0 W/m2
21:00 72.1 °F 66.3 °F 29.84 in Calm     82% 0.00 in 0 W/m2
21:06 72.1 °F 66.6 °F 29.84 in Calm     83% 0.00 in 0 W/m2
21:12 71.9 °F 66.5 °F 29.84 in Calm     83% 0.00 in 0 W/m2
21:18 71.5 °F 66.1 °F 29.85 in Calm     83% 0.00 in 0 W/m2
21:24 71.3 °F 65.9 °F 29.85 in Calm     83% 0.00 in 0 W/m2
21:30 71.1 °F 65.7 °F 29.85 in Calm     83% 0.00 in 0 W/m2
21:36 70.9 °F 65.8 °F 29.85 in Calm     84% 0.00 in 0 W/m2
21:42 70.8 °F 65.7 °F 29.85 in Calm     84% 0.00 in 0 W/m2
21:48 70.6 °F 65.5 °F 29.85 in Calm     84% 0.00 in 0 W/m2
21:54 70.3 °F 65.2 °F 29.86 in Calm     84% 0.00 in 0 W/m2
22:00 70.2 °F 65.5 °F 29.86 in Calm     85% 0.00 in 0 W/m2
22:06 70.0 °F 65.3 °F 29.86 in Calm     85% 0.00 in 0 W/m2
22:12 69.9 °F 65.5 °F 29.86 in Calm     86% 0.00 in 0 W/m2
22:18 70.0 °F 65.6 °F 29.86 in Calm     86% 0.00 in 0 W/m2
22:24 70.0 °F 65.6 °F 29.86 in Calm     86% 0.00 in 0 W/m2
22:30 69.9 °F 65.5 °F 29.86 in Calm     86% 0.00 in 0 W/m2
22:36 69.9 °F 65.5 °F 29.86 in Calm     86% 0.00 in 0 W/m2
22:42 69.7 °F 65.7 °F 29.86 in Calm     87% 0.00 in 0 W/m2
22:48 69.6 °F 65.6 °F 29.86 in Calm     87% 0.00 in 0 W/m2
22:54 69.6 °F 65.6 °F 29.86 in Calm   1.0 mph 87% 0.00 in 0 W/m2
23:00 69.6 °F 65.6 °F 29.86 in Calm     87% 0.00 in 0 W/m2
23:06 69.5 °F 65.8 °F 29.85 in Calm     88% 0.00 in 0 W/m2
23:12 69.2 °F 65.5 °F 29.85 in Calm     88% 0.00 in 0 W/m2
23:18 68.9 °F 65.2 °F 29.85 in Calm     88% 0.00 in 0 W/m2
23:24 68.7 °F 65.3 °F 29.85 in Calm   2.0 mph 89% 0.00 in 0 W/m2
23:30 68.6 °F 65.2 °F 29.86 in Calm     89% 0.00 in 0 W/m2
23:36 68.4 °F 65.0 °F 29.86 in Calm     89% 0.00 in 0 W/m2
23:42 68.3 °F 64.9 °F 29.85 in Calm     89% 0.00 in 0 W/m2
23:48 68.1 °F 65.1 °F 29.86 in Calm     90% 0.00 in 0 W/m2
23:54 68.0 °F 65.0 °F 29.86 in Calm     90% 0.00 in 0 W/m2
Country Meadow, Clay, NY, USA
Compliments of Weather Underground - 2 mb